Terminal Aerodrome Forecast
Issued by NWS Sterling, VA

Current Version | Previous Version | Text Only | Print | Product List | Glossary Off
Versions: 1 2 3 4 5 6 7 8 9 10 11 12 13 14 15 16 17 18 19 20 21 22 23 24 25 26

000
FTUS41 KLWX 230346 AAB
TAFIAD
TAF AMD
KIAD 230346Z 2304/2406 17005KT P6SM VCTS FEW008 SCT026CB BKN070
      TEMPO 2304/2306 28015G30KT 3SM -TSRA BKN025CB
     FM230600 24005KT P6SM VCTS BKN070CB
     FM230900 24006KT P6SM BKN250
     FM231500 28007KT P6SM BKN040
     FM232000 24007KT P6SM BKN045=

USA.gov is the U.S. government's official web portal to all federal, state and local government web resources and services.